sensor_id;sensor_type;location;lat;lon;timestamp;pressure;altitude;pressure_sealevel;temperature;humidity
35778;BME280;21899;42.662;23.316;2023-01-28T00:00:29;93740.88;;;-0.02;100.00
35778;BME280;21899;42.662;23.316;2023-01-28T00:02:54;93737.84;;;-0.04;100.00
35778;BME280;21899;42.662;23.316;2023-01-28T00:05:19;93747.88;;;0.07;100.00
35778;BME280;21899;42.662;23.316;2023-01-28T00:07:48;93750.94;;;0.09;100.00
35778;BME280;21899;42.662;23.316;2023-01-28T00:10:13;93752.59;;;0.13;100.00
35778;BME280;21899;42.662;23.316;2023-01-28T00:12:39;93743.56;;;0.14;100.00
35778;BME280;21899;42.662;23.316;2023-01-28T00:15:05;93759.47;;;0.18;100.00
35778;BME280;21899;42.662;23.316;2023-01-28T00:17:30;93770.84;;;0.22;100.00
35778;BME280;21899;42.662;23.316;2023-01-28T00:19:56;93762.94;;;0.22;100.00
35778;BME280;21899;42.662;23.316;2023-01-28T00:22:21;93765.16;;;0.20;100.00
35778;BME280;21899;42.662;23.316;2023-01-28T00:24:47;93765.34;;;0.27;100.00
35778;BME280;21899;42.662;23.316;2023-01-28T00:27:12;93769.06;;;0.38;100.00
35778;BME280;21899;42.662;23.316;2023-01-28T00:29:37;93760.06;;;0.27;100.00
35778;BME280;21899;42.662;23.316;2023-01-28T00:32:03;93769.06;;;0.38;100.00
35778;BME280;21899;42.662;23.316;2023-01-28T00:34:28;93772.88;;;0.40;100.00
35778;BME280;21899;42.662;23.316;2023-01-28T00:36:54;93766.22;;;0.31;100.00
35778;BME280;21899;42.662;23.316;2023-01-28T00:39:23;93783.06;;;0.42;100.00
35778;BME280;21899;42.662;23.316;2023-01-28T00:41:52;93773.19;;;0.39;100.00
35778;BME280;21899;42.662;23.316;2023-01-28T00:44:19;93786.47;;;0.42;100.00
35778;BME280;21899;42.662;23.316;2023-01-28T00:46:45;93785.44;;;0.47;100.00
35778;BME280;21899;42.662;23.316;2023-01-28T00:49:10;93782.06;;;0.46;100.00
35778;BME280;21899;42.662;23.316;2023-01-28T00:51:36;93785.03;;;0.45;100.00
35778;BME280;21899;42.662;23.316;2023-01-28T00:54:01;93773.63;;;0.41;100.00
35778;BME280;21899;42.662;23.316;2023-01-28T00:56:26;93787.25;;;0.43;100.00
35778;BME280;21899;42.662;23.316;2023-01-28T00:58:52;93778.13;;;0.40;100.00
35778;BME280;21899;42.662;23.316;2023-01-28T01:01:24;93783.28;;;0.37;100.00
35778;BME280;21899;42.662;23.316;2023-01-28T01:03:50;93781.00;;;0.35;100.00
35778;BME280;21899;42.662;23.316;2023-01-28T01:06:27;93786.59;;;0.34;100.00
35778;BME280;21899;42.662;23.316;2023-01-28T01:08:53;93781.78;;;0.36;100.00
35778;BME280;21899;42.662;23.316;2023-01-28T01:11:19;93781.09;;;0.39;100.00
35778;BME280;21899;42.662;23.316;2023-01-28T01:13:49;93782.88;;;0.35;100.00
35778;BME280;21899;42.662;23.316;2023-01-28T01:16:15;93775.84;;;0.39;100.00
35778;BME280;21899;42.662;23.316;2023-01-28T01:18:41;93784.84;;;0.38;100.00
35778;BME280;21899;42.662;23.316;2023-01-28T01:21:11;93792.91;;;0.45;100.00
35778;BME280;21899;42.662;23.316;2023-01-28T01:23:37;93793.34;;;0.47;100.00
35778;BME280;21899;42.662;23.316;2023-01-28T01:26:04;93786.56;;;0.46;100.00
35778;BME280;21899;42.662;23.316;2023-01-28T01:28:30;93790.56;;;0.40;100.00
35778;BME280;21899;42.662;23.316;2023-01-28T01:31:07;93795.16;;;0.31;100.00
35778;BME280;21899;42.662;23.316;2023-01-28T01:33:34;93789.91;;;0.31;100.00
35778;BME280;21899;42.662;23.316;2023-01-28T01:36:00;93798.34;;;0.36;100.00
35778;BME280;21899;42.662;23.316;2023-01-28T01:38:26;93804.34;;;0.37;100.00
35778;BME280;21899;42.662;23.316;2023-01-28T01:40:51;93805.03;;;0.34;100.00
35778;BME280;21899;42.662;23.316;2023-01-28T01:43:21;93801.97;;;0.32;100.00
35778;BME280;21899;42.662;23.316;2023-01-28T01:45:54;93794.06;;;0.32;100.00
35778;BME280;21899;42.662;23.316;2023-01-28T01:48:25;93797.69;;;0.27;100.00
35778;BME280;21899;42.662;23.316;2023-01-28T01:50:57;93788.84;;;0.20;100.00
35778;BME280;21899;42.662;23.316;2023-01-28T01:53:25;93798.50;;;0.16;100.00
35778;BME280;21899;42.662;23.316;2023-01-28T01:55:55;93799.72;;;0.06;100.00
35778;BME280;21899;42.662;23.316;2023-01-28T01:58:27;93797.44;;;0.05;100.00
35778;BME280;21899;42.662;23.316;2023-01-28T02:00:53;93791.19;;;-0.03;100.00
35778;BME280;21899;42.662;23.316;2023-01-28T02:03:26;93805.88;;;-0.02;100.00
35778;BME280;21899;42.662;23.316;2023-01-28T02:05:53;93792.06;;;0.01;100.00
35778;BME280;21899;42.662;23.316;2023-01-28T02:08:18;93797.34;;;0.01;100.00
35778;BME280;21899;42.662;23.316;2023-01-28T02:10:52;93814.53;;;-0.02;100.00
35778;BME280;21899;42.662;23.316;2023-01-28T02:13:21;93798.97;;;-0.07;100.00
35778;BME280;21899;42.662;23.316;2023-01-28T02:15:49;93804.00;;;-0.02;100.00
35778;BME280;21899;42.662;23.316;2023-01-28T02:18:15;93804.22;;;-0.07;100.00
35778;BME280;21899;42.662;23.316;2023-01-28T02:29:24;93814.53;;;-0.02;100.00
35778;BME280;21899;42.662;23.316;2023-01-28T02:31:57;93813.88;;;0.02;100.00
35778;BME280;21899;42.662;23.316;2023-01-28T02:34:37;93822.19;;;0.03;100.00
35778;BME280;21899;42.662;23.316;2023-01-28T02:37:21;93815.53;;;0.06;100.00
35778;BME280;21899;42.662;23.316;2023-01-28T02:40:04;93814.31;;;0.03;100.00
35778;BME280;21899;42.662;23.316;2023-01-28T02:42:34;93814.75;;;0.06;100.00
35778;BME280;21899;42.662;23.316;2023-01-28T02:45:00;93820.78;;;0.06;100.00
35778;BME280;21899;42.662;23.316;2023-01-28T02:47:26;93814.75;;;0.06;100.00
35778;BME280;21899;42.662;23.316;2023-01-28T02:50:19;93808.28;;;0.03;100.00
35778;BME280;21899;42.662;23.316;2023-01-28T03:03:57;93829.63;;;0.14;100.00
35778;BME280;21899;42.662;23.316;2023-01-28T03:06:29;93820.31;;;0.16;100.00
35778;BME280;21899;42.662;23.316;2023-01-28T03:09:00;93826.25;;;0.13;100.00
35778;BME280;21899;42.662;23.316;2023-01-28T03:12:01;93821.75;;;0.14;100.00
35778;BME280;21899;42.662;23.316;2023-01-28T03:14:58;93823.31;;;0.03;100.00
35778;BME280;21899;42.662;23.316;2023-01-28T03:17:48;93819.78;;;0.11;100.00
35778;BME280;21899;42.662;23.316;2023-01-28T03:24:02;93817.72;;;0.04;100.00
35778;BME280;21899;42.662;23.316;2023-01-28T03:29:47;93828.13;;;0.00;100.00
35778;BME280;21899;42.662;23.316;2023-01-28T03:32:34;93827.78;;;0.02;100.00
35778;BME280;21899;42.662;23.316;2023-01-28T03:35:21;93834.94;;;0.02;100.00
35778;BME280;21899;42.662;23.316;2023-01-28T03:38:07;93833.72;;;0.11;100.00
35778;BME280;21899;42.662;23.316;2023-01-28T03:40:56;93840.25;;;0.17;100.00
35778;BME280;21899;42.662;23.316;2023-01-28T03:43:22;93832.38;;;0.17;100.00
35778;BME280;21899;42.662;23.316;2023-01-28T03:45:48;93827.00;;;0.14;100.00
35778;BME280;21899;42.662;23.316;2023-01-28T03:48:22;93840.38;;;0.09;100.00
35778;BME280;21899;42.662;23.316;2023-01-28T03:50:49;93837.34;;;-0.06;100.00
35778;BME280;21899;42.662;23.316;2023-01-28T03:53:15;93846.53;;;0.00;100.00
35778;BME280;21899;42.662;23.316;2023-01-28T03:55:42;93842.59;;;-0.06;100.00
35778;BME280;21899;42.662;23.316;2023-01-28T03:58:10;93852.03;;;-0.05;100.00
35778;BME280;21899;42.662;23.316;2023-01-28T04:00:36;93850.06;;;-0.08;100.00
35778;BME280;21899;42.662;23.316;2023-01-28T04:03:09;93853.13;;;-0.06;100.00
35778;BME280;21899;42.662;23.316;2023-01-28T04:05:44;93853.56;;;-0.04;100.00
35778;BME280;21899;42.662;23.316;2023-01-28T04:08:10;93842.59;;;-0.06;100.00
35778;BME280;21899;42.662;23.316;2023-01-28T04:10:37;93854.22;;;-0.07;100.00
35778;BME280;21899;42.662;23.316;2023-01-28T04:13:03;93853.34;;;-0.11;100.00
35778;BME280;21899;42.662;23.316;2023-01-28T04:15:29;93861.25;;;-0.11;100.00
35778;BME280;21899;42.662;23.316;2023-01-28T04:17:55;93860.91;;;-0.09;100.00
35778;BME280;21899;42.662;23.316;2023-01-28T04:20:21;93854.13;;;-0.10;100.00
35778;BME280;21899;42.662;23.316;2023-01-28T04:22:46;93864.66;;;-0.10;100.00
35778;BME280;21899;42.662;23.316;2023-01-28T04:25:12;93865.63;;;-0.15;100.00
35778;BME280;21899;42.662;23.316;2023-01-28T04:27:37;93859.59;;;-0.27;100.00
35778;BME280;21899;42.662;23.316;2023-01-28T04:30:03;93865.19;;;-0.29;100.00
35778;BME280;21899;42.662;23.316;2023-01-28T04:32:28;93874.72;;;-0.24;100.00
35778;BME280;21899;42.662;23.316;2023-01-28T04:34:54;93872.66;;;-0.19;100.00
35778;BME280;21899;42.662;23.316;2023-01-28T04:37:19;93879.97;;;-0.12;100.00
35778;BME280;21899;42.662;23.316;2023-01-28T04:39:45;93882.94;;;-0.14;100.00
35778;BME280;21899;42.662;23.316;2023-01-28T04:42:10;93877.91;;;-0.19;100.00
35778;BME280;21899;42.662;23.316;2023-01-28T04:44:35;93883.06;;;-0.22;100.00
35778;BME280;21899;42.662;23.316;2023-01-28T04:47:01;93888.53;;;-0.27;100.00
35778;BME280;21899;42.662;23.316;2023-01-28T04:49:26;93890.38;;;-0.28;100.00
35778;BME280;21899;42.662;23.316;2023-01-28T04:51:51;93890.59;;;-0.21;100.00
35778;BME280;21899;42.662;23.316;2023-01-28T04:54:17;93896.53;;;-0.24;100.00
35778;BME280;21899;42.662;23.316;2023-01-28T04:56:42;93878.78;;;-0.39;100.00
35778;BME280;21899;42.662;23.316;2023-01-28T04:59:08;93894.66;;;-0.35;100.00
35778;BME280;21899;42.662;23.316;2023-01-28T05:01:33;93896.06;;;-0.38;100.00
35778;BME280;21899;42.662;23.316;2023-01-28T05:03:58;93900.13;;;-0.40;100.00
35778;BME280;21899;42.662;23.316;2023-01-28T05:06:29;93889.94;;;-0.42;100.00
35778;BME280;21899;42.662;23.316;2023-01-28T05:08:55;93907.16;;;-0.32;100.00
35778;BME280;21899;42.662;23.316;2023-01-28T05:11:20;93905.28;;;-0.32;100.00
35778;BME280;21899;42.662;23.316;2023-01-28T05:13:45;93903.00;;;-0.33;100.00
35778;BME280;21899;42.662;23.316;2023-01-28T05:16:11;93912.06;;;-0.31;100.00
35778;BME280;21899;42.662;23.316;2023-01-28T05:18:36;93914.91;;;-0.36;100.00
35778;BME280;21899;42.662;23.316;2023-01-28T05:21:02;93917.78;;;-0.29;100.00
35778;BME280;21899;42.662;23.316;2023-01-28T05:23:27;93914.91;;;-0.36;100.00
35778;BME280;21899;42.662;23.316;2023-01-28T05:25:53;93923.91;;;-0.25;100.00
35778;BME280;21899;42.662;23.316;2023-01-28T05:28:18;93919.75;;;-0.26;100.00
35778;BME280;21899;42.662;23.316;2023-01-28T05:30:43;93917.91;;;-0.25;100.00
35778;BME280;21899;42.662;23.316;2023-01-28T05:33:09;93922.81;;;-0.24;100.00
35778;BME280;21899;42.662;23.316;2023-01-28T05:35:34;93929.28;;;-0.21;100.00
35778;BME280;21899;42.662;23.316;2023-01-28T05:38:01;93925.25;;;-0.19;100.00
35778;BME280;21899;42.662;23.316;2023-01-28T05:40:26;93932.81;;;-0.17;100.00
35778;BME280;21899;42.662;23.316;2023-01-28T05:42:52;93932.56;;;-0.24;100.00
35778;BME280;21899;42.662;23.316;2023-01-28T05:45:17;93920.09;;;-0.27;100.00
35778;BME280;21899;42.662;23.316;2023-01-28T05:47:42;93935.75;;;-0.19;100.00
35778;BME280;21899;42.662;23.316;2023-01-28T05:50:08;93925.78;;;-0.25;100.00
35778;BME280;21899;42.662;23.316;2023-01-28T05:52:34;93924.78;;;-0.33;100.00
35778;BME280;21899;42.662;23.316;2023-01-28T05:54:59;93923.78;;;-0.40;100.00
35778;BME280;21899;42.662;23.316;2023-01-28T05:57:25;93941.00;;;-0.31;100.00
35778;BME280;21899;42.662;23.316;2023-01-28T05:59:51;93933.56;;;-0.29;100.00
35778;BME280;21899;42.662;23.316;2023-01-28T06:02:16;93927.19;;;-0.28;100.00
35778;BME280;21899;42.662;23.316;2023-01-28T06:04:41;93944.53;;;-0.27;100.00
35778;BME280;21899;42.662;23.316;2023-01-28T06:07:07;93951.31;;;-0.26;100.00
35778;BME280;21899;42.662;23.316;2023-01-28T06:09:32;93954.03;;;-0.34;100.00
35778;BME280;21899;42.662;23.316;2023-01-28T06:11:58;93966.50;;;-0.31;100.00
35778;BME280;21899;42.662;23.316;2023-01-28T06:14:23;93953.03;;;-0.42;100.00
35778;BME280;21899;42.662;23.316;2023-01-28T06:16:48;93962.13;;;-0.39;100.00
35778;BME280;21899;42.662;23.316;2023-01-28T06:19:16;93976.06;;;-0.27;100.00
35778;BME280;21899;42.662;23.316;2023-01-28T06:21:41;93972.69;;;-0.15;100.00
35778;BME280;21899;42.662;23.316;2023-01-28T06:24:07;93985.06;;;-0.16;100.00
35778;BME280;21899;42.662;23.316;2023-01-28T06:26:33;93982.22;;;-0.11;100.00
35778;BME280;21899;42.662;23.316;2023-01-28T06:28:58;93986.84;;;-0.08;100.00
35778;BME280;21899;42.662;23.316;2023-01-28T06:31:23;93983.97;;;-0.15;100.00
35778;BME280;21899;42.662;23.316;2023-01-28T06:33:49;93997.25;;;0.01;100.00
35778;BME280;21899;42.662;23.316;2023-01-28T06:36:14;94000.34;;;0.03;100.00
35778;BME280;21899;42.662;23.316;2023-01-28T06:38:40;94006.59;;;0.11;100.00
35778;BME280;21899;42.662;23.316;2023-01-28T06:41:05;94007.66;;;-0.03;100.00
35778;BME280;21899;42.662;23.316;2023-01-28T06:43:30;94002.41;;;-0.03;100.00
35778;BME280;21899;42.662;23.316;2023-01-28T06:45:56;94011.63;;;0.03;100.00
35778;BME280;21899;42.662;23.316;2023-01-28T06:48:23;94012.72;;;0.03;100.00
35778;BME280;21899;42.662;23.316;2023-01-28T06:50:49;94022.25;;;0.07;100.00
35778;BME280;21899;42.662;23.316;2023-01-28T06:53:15;94020.19;;;0.13;100.00
35778;BME280;21899;42.662;23.316;2023-01-28T06:55:41;94023.28;;;0.15;100.00
35778;BME280;21899;42.662;23.316;2023-01-28T06:58:07;94021.84;;;0.17;100.00
35778;BME280;21899;42.662;23.316;2023-01-28T07:00:32;94028.41;;;0.11;100.00
35778;BME280;21899;42.662;23.316;2023-01-28T07:02:58;94030.38;;;0.02;100.00
35778;BME280;21899;42.662;23.316;2023-01-28T07:05:24;94028.72;;;-0.03;100.00
35778;BME280;21899;42.662;23.316;2023-01-28T07:07:49;94030.94;;;0.08;100.00
35778;BME280;21899;42.662;23.316;2023-01-28T07:10:15;94040.22;;;0.05;100.00
35778;BME280;21899;42.662;23.316;2023-01-28T07:12:40;94037.38;;;0.10;100.00
35778;BME280;21899;42.662;23.316;2023-01-28T07:15:07;94034.75;;;0.10;100.00
35778;BME280;21899;42.662;23.316;2023-01-28T07:17:37;94051.88;;;0.16;100.00
35778;BME280;21899;42.662;23.316;2023-01-28T07:20:04;94044.75;;;0.05;100.00
35778;BME280;21899;42.662;23.316;2023-01-28T07:22:29;94057.03;;;0.13;100.00
35778;BME280;21899;42.662;23.316;2023-01-28T07:24:55;94057.47;;;0.15;100.00
35778;BME280;21899;42.662;23.316;2023-01-28T07:27:20;94060.53;;;0.17;100.00
35778;BME280;21899;42.662;23.316;2023-01-28T07:29:45;94063.28;;;0.20;100.00
35778;BME280;21899;42.662;23.316;2023-01-28T07:32:11;94058.34;;;0.19;100.00
35778;BME280;21899;42.662;23.316;2023-01-28T07:34:36;94067.56;;;0.13;100.00
35778;BME280;21899;42.662;23.316;2023-01-28T07:37:04;94062.28;;;0.13;100.00
35778;BME280;21899;42.662;23.316;2023-01-28T07:39:30;94065.59;;;0.22;100.00
35778;BME280;21899;42.662;23.316;2023-01-28T07:41:56;94069.44;;;0.24;100.00
35778;BME280;21899;42.662;23.316;2023-01-28T07:44:21;94073.06;;;0.32;100.00
35778;BME280;21899;42.662;23.316;2023-01-28T07:46:46;94078.34;;;0.44;100.00
35778;BME280;21899;42.662;23.316;2023-01-28T07:49:12;94072.44;;;0.35;100.00
35778;BME280;21899;42.662;23.316;2023-01-28T07:51:37;94072.31;;;0.31;100.00
35778;BME280;21899;42.662;23.316;2023-01-28T07:54:03;94079.56;;;0.34;100.00
35778;BME280;21899;42.662;23.316;2023-01-28T07:56:30;94087.44;;;0.34;100.00
35778;BME280;21899;42.662;23.316;2023-01-28T07:58:55;94081.84;;;0.36;100.00
35778;BME280;21899;42.662;23.316;2023-01-28T08:01:20;94088.66;;;0.49;100.00
35778;BME280;21899;42.662;23.316;2023-01-28T08:03:46;94082.63;;;0.60;100.00
35778;BME280;21899;42.662;23.316;2023-01-28T08:06:11;94079.56;;;0.58;100.00
35778;BME280;21899;42.662;23.316;2023-01-28T08:08:37;94080.44;;;0.62;100.00
35778;BME280;21899;42.662;23.316;2023-01-28T08:11:09;94082.75;;;0.64;100.00
35778;BME280;21899;42.662;23.316;2023-01-28T08:13:35;94093.53;;;0.71;100.00
35778;BME280;21899;42.662;23.316;2023-01-28T08:16:01;94100.66;;;0.82;100.00
35778;BME280;21899;42.662;23.316;2023-01-28T08:18:27;94094.50;;;0.78;99.71
35778;BME280;21899;42.662;23.316;2023-01-28T08:20:56;94099.09;;;0.81;98.90
35778;BME280;21899;42.662;23.316;2023-01-28T08:23:22;94087.03;;;0.80;99.59
35778;BME280;21899;42.662;23.316;2023-01-28T08:25:47;94102.06;;;0.92;99.38
35778;BME280;21899;42.662;23.316;2023-01-28T08:28:14;94100.09;;;0.89;99.77
35778;BME280;21899;42.662;23.316;2023-01-28T08:30:40;94093.72;;;0.78;98.49
35778;BME280;21899;42.662;23.316;2023-01-28T08:33:08;94103.81;;;0.88;99.90
35778;BME280;21899;42.662;23.316;2023-01-28T08:35:33;94095.28;;;0.91;98.82
35778;BME280;21899;42.662;23.316;2023-01-28T08:38:01;94100.53;;;0.91;98.17
35778;BME280;21899;42.662;23.316;2023-01-28T08:40:27;94103.19;;;0.91;98.20
35778;BME280;21899;42.662;23.316;2023-01-28T08:42:53;94112.16;;;0.90;97.69
35778;BME280;21899;42.662;23.316;2023-01-28T08:45:20;94112.63;;;1.04;97.32
35778;BME280;21899;42.662;23.316;2023-01-28T08:50:18;94109.50;;;1.26;96.97
35778;BME280;21899;42.662;23.316;2023-01-28T08:52:45;94090.13;;;1.46;95.98
35778;BME280;21899;42.662;23.316;2023-01-28T08:55:12;94109.41;;;1.62;93.44
35778;BME280;21899;42.662;23.316;2023-01-28T08:57:38;94109.28;;;1.71;93.46
35778;BME280;21899;42.662;23.316;2023-01-28T09:00:05;94113.31;;;1.80;92.56
35778;BME280;21899;42.662;23.316;2023-01-28T09:02:31;94106.59;;;1.55;92.34
35778;BME280;21899;42.662;23.316;2023-01-28T09:04:56;94111.88;;;1.43;93.16
35778;BME280;21899;42.662;23.316;2023-01-28T09:07:22;94112.22;;;1.54;93.56
35778;BME280;21899;42.662;23.316;2023-01-28T09:09:47;94118.91;;;1.51;93.61
35778;BME280;21899;42.662;23.316;2023-01-28T09:12:12;94110.44;;;1.58;94.08
35778;BME280;21899;42.662;23.316;2023-01-28T09:14:38;94114.69;;;1.62;93.87
35778;BME280;21899;42.662;23.316;2023-01-28T09:17:04;94117.75;;;1.76;93.56
35778;BME280;21899;42.662;23.316;2023-01-28T09:19:29;94103.44;;;1.77;91.85
35778;BME280;21899;42.662;23.316;2023-01-28T09:21:55;94123.00;;;1.76;91.98
35778;BME280;21899;42.662;23.316;2023-01-28T09:24:20;94117.53;;;1.69;92.37
35778;BME280;21899;42.662;23.316;2023-01-28T09:26:49;94113.72;;;1.67;92.64
35778;BME280;21899;42.662;23.316;2023-01-28T09:29:14;94111.19;;;1.58;92.34
35778;BME280;21899;42.662;23.316;2023-01-28T09:31:40;94098.25;;;1.41;93.73
35778;BME280;21899;42.662;23.316;2023-01-28T09:34:07;94117.06;;;1.40;94.47
35778;BME280;21899;42.662;23.316;2023-01-28T09:36:32;94115.00;;;1.21;94.98
35778;BME280;21899;42.662;23.316;2023-01-28T09:38:57;94113.69;;;1.27;96.64
35778;BME280;21899;42.662;23.316;2023-01-28T09:41:28;94109.72;;;1.33;96.32
35778;BME280;21899;42.662;23.316;2023-01-28T09:46:39;94112.56;;;1.40;95.14
35778;BME280;21899;42.662;23.316;2023-01-28T09:49:33;94113.53;;;1.48;95.68
35778;BME280;21899;42.662;23.316;2023-01-28T09:51:59;94120.13;;;1.54;95.16
35778;BME280;21899;42.662;23.316;2023-01-28T09:54:37;94118.06;;;1.23;95.35
35778;BME280;21899;42.662;23.316;2023-01-28T09:57:25;94120.72;;;1.23;97.26
35778;BME280;21899;42.662;23.316;2023-01-28T09:59:56;94101.25;;;1.27;96.95
35778;BME280;21899;42.662;23.316;2023-01-28T10:02:50;94113.25;;;1.25;96.18
35778;BME280;21899;42.662;23.316;2023-01-28T10:05:32;94108.63;;;1.22;97.54
35778;BME280;21899;42.662;23.316;2023-01-28T10:08:30;94100.91;;;1.29;97.92
35778;BME280;21899;42.662;23.316;2023-01-28T10:11:04;94108.81;;;1.29;96.57
35778;BME280;21899;42.662;23.316;2023-01-28T10:13:51;94103.56;;;1.29;98.80
35778;BME280;21899;42.662;23.316;2023-01-28T10:16:49;94108.38;;;1.39;98.28
35778;BME280;21899;42.662;23.316;2023-01-28T10:19:24;94109.25;;;1.43;96.91
35778;BME280;21899;42.662;23.316;2023-01-28T10:24:24;94104.53;;;1.49;96.21
35778;BME280;21899;42.662;23.316;2023-01-28T10:26:53;94103.16;;;1.27;97.95
35778;BME280;21899;42.662;23.316;2023-01-28T10:29:23;94104.91;;;1.23;99.53
35778;BME280;21899;42.662;23.316;2023-01-28T10:34:36;94095.56;;;1.25;99.06
35778;BME280;21899;42.662;23.316;2023-01-28T10:37:01;94104.53;;;1.37;98.97
35778;BME280;21899;42.662;23.316;2023-01-28T10:39:27;94105.31;;;1.37;98.49
35778;BME280;21899;42.662;23.316;2023-01-28T10:41:53;94114.31;;;1.24;98.73
35778;BME280;21899;42.662;23.316;2023-01-28T10:44:34;94094.56;;;1.30;99.16
35778;BME280;21899;42.662;23.316;2023-01-28T10:47:19;94106.75;;;1.34;98.53
35778;BME280;21899;42.662;23.316;2023-01-28T10:49:54;94095.09;;;1.35;97.51
35778;BME280;21899;42.662;23.316;2023-01-28T10:52:20;94102.38;;;1.66;97.67
35778;BME280;21899;42.662;23.316;2023-01-28T10:54:46;94101.53;;;1.90;96.28
35778;BME280;21899;42.662;23.316;2023-01-28T10:57:13;94103.22;;;2.10;96.28
35778;BME280;21899;42.662;23.316;2023-01-28T10:59:40;94098.66;;;2.38;93.05
35778;BME280;21899;42.662;23.316;2023-01-28T11:02:35;94101.03;;;2.58;91.46
35778;BME280;21899;42.662;23.316;2023-01-28T11:07:50;94085.78;;;2.52;88.22
35778;BME280;21899;42.662;23.316;2023-01-28T11:12:57;94100.13;;;2.51;88.84
35778;BME280;21899;42.662;23.316;2023-01-28T11:15:23;94097.38;;;2.63;89.15
35778;BME280;21899;42.662;23.316;2023-01-28T11:17:58;94100.34;;;2.30;89.58
35778;BME280;21899;42.662;23.316;2023-01-28T11:20:27;94098.31;;;2.39;89.84
35778;BME280;21899;42.662;23.316;2023-01-28T11:22:54;94090.63;;;2.50;89.09
35778;BME280;21899;42.662;23.316;2023-01-28T11:25:32;94077.59;;;2.41;87.50
35778;BME280;21899;42.662;23.316;2023-01-28T11:28:00;94100.53;;;2.37;87.96
35778;BME280;21899;42.662;23.316;2023-01-28T11:30:28;94088.16;;;2.41;87.10
35778;BME280;21899;42.662;23.316;2023-01-28T11:35:27;94096.28;;;2.33;88.49
35778;BME280;21899;42.662;23.316;2023-01-28T11:37:55;94072.22;;;2.22;88.26
35778;BME280;21899;42.662;23.316;2023-01-28T11:40:21;94084.00;;;1.97;90.19
35778;BME280;21899;42.662;23.316;2023-01-28T11:42:48;94087.19;;;2.03;90.33
35778;BME280;21899;42.662;23.316;2023-01-28T11:45:16;94088.31;;;2.17;90.41
35778;BME280;21899;42.662;23.316;2023-01-28T11:56:26;94091.53;;;2.11;89.67
35778;BME280;21899;42.662;23.316;2023-01-28T12:09:24;94091.13;;;1.81;91.67
35778;BME280;21899;42.662;23.316;2023-01-28T12:12:06;94090.97;;;1.90;91.43
35778;BME280;21899;42.662;23.316;2023-01-28T12:21:05;94095.84;;;1.48;93.76
35778;BME280;21899;42.662;23.316;2023-01-28T12:37:47;94106.75;;;1.34;93.65
35778;BME280;21899;42.662;23.316;2023-01-28T12:40:24;94105.22;;;1.21;94.54
35778;BME280;21899;42.662;23.316;2023-01-28T12:43:21;94101.47;;;1.22;95.30
35778;BME280;21899;42.662;23.316;2023-01-28T12:46:08;94100.63;;;1.18;95.21
35778;BME280;21899;42.662;23.316;2023-01-28T12:48:41;94099.41;;;1.16;94.82
35778;BME280;21899;42.662;23.316;2023-01-28T12:53:47;94114.78;;;1.26;95.50
35778;BME280;21899;42.662;23.316;2023-01-28T12:56:26;94130.19;;;1.12;96.95
35778;BME280;21899;42.662;23.316;2023-01-28T12:59:00;94113.69;;;1.15;97.57
35778;BME280;21899;42.662;23.316;2023-01-28T13:01:41;94121.88;;;1.38;97.65
35778;BME280;21899;42.662;23.316;2023-01-28T13:06:56;94115.78;;;1.73;97.29
35778;BME280;21899;42.662;23.316;2023-01-28T13:09:25;94122.59;;;1.62;93.88
35778;BME280;21899;42.662;23.316;2023-01-28T13:11:53;94119.31;;;1.65;94.95
35778;BME280;21899;42.662;23.316;2023-01-28T13:14:28;94119.94;;;1.74;94.69
35778;BME280;21899;42.662;23.316;2023-01-28T13:16:55;94120.72;;;1.75;93.69
35778;BME280;21899;42.662;23.316;2023-01-28T13:19:23;94130.97;;;1.52;94.23
35778;BME280;21899;42.662;23.316;2023-01-28T13:21:49;94127.84;;;1.34;95.28
35778;BME280;21899;42.662;23.316;2023-01-28T13:29:14;94130.03;;;1.32;97.44
35778;BME280;21899;42.662;23.316;2023-01-28T13:31:45;94133.34;;;1.17;98.38
35778;BME280;21899;42.662;23.316;2023-01-28T13:34:31;94141.34;;;1.21;100.00
35778;BME280;21899;42.662;23.316;2023-01-28T13:37:00;94143.81;;;1.14;100.00
35778;BME280;21899;42.662;23.316;2023-01-28T13:39:28;94148.59;;;1.24;100.00
35778;BME280;21899;42.662;23.316;2023-01-28T13:44:50;94129.72;;;1.22;100.00
35778;BME280;21899;42.662;23.316;2023-01-28T13:47:32;94153.88;;;1.24;100.00
35778;BME280;21899;42.662;23.316;2023-01-28T13:50:15;94158.06;;;1.25;100.00
35778;BME280;21899;42.662;23.316;2023-01-28T13:55:32;94154.56;;;0.97;100.00
35778;BME280;21899;42.662;23.316;2023-01-28T14:01:20;94169.91;;;0.95;100.00
35778;BME280;21899;42.662;23.316;2023-01-28T14:17:40;94179.91;;;0.77;100.00
35778;BME280;21899;42.662;23.316;2023-01-28T14:22:42;94193.16;;;0.69;100.00
35778;BME280;21899;42.662;23.316;2023-01-28T14:25:15;94195.66;;;0.65;100.00
35778;BME280;21899;42.662;23.316;2023-01-28T14:27:45;94196.38;;;0.42;100.00
35778;BME280;21899;42.662;23.316;2023-01-28T14:32:50;94206.56;;;0.11;100.00
35778;BME280;21899;42.662;23.316;2023-01-28T14:35:31;94185.25;;;0.03;100.00
35778;BME280;21899;42.662;23.316;2023-01-28T14:37:59;94197.09;;;-0.03;100.00
35778;BME280;21899;42.662;23.316;2023-01-28T14:40:25;94188.22;;;0.02;100.00
35778;BME280;21899;42.662;23.316;2023-01-28T14:42:54;94203.16;;;0.10;100.00
35778;BME280;21899;42.662;23.316;2023-01-28T14:54:37;94217.22;;;0.14;100.00
35778;BME280;21899;42.662;23.316;2023-01-28T15:01:43;94218.25;;;0.01;100.00
35778;BME280;21899;42.662;23.316;2023-01-28T15:04:31;94218.91;;;-0.02;100.00
35778;BME280;21899;42.662;23.316;2023-01-28T15:07:11;94213.50;;;-0.06;100.00
35778;BME280;21899;42.662;23.316;2023-01-28T15:09:39;94218.66;;;-0.09;100.00
35778;BME280;21899;42.662;23.316;2023-01-28T15:12:05;94218.78;;;-0.06;100.00
35778;BME280;21899;42.662;23.316;2023-01-28T15:14:32;94221.78;;;-0.16;100.00
35778;BME280;21899;42.662;23.316;2023-01-28T15:16:58;94227.75;;;-0.07;100.00